sensor_id;sensor_type;location;lat;lon;timestamp;pressure;altitude;pressure_sealevel;temperature
47484;BMP280;54076;50.322;18.650;2023-08-08T00:00:19;148631.84;;;10.16
47484;BMP280;54076;50.322;18.650;2023-08-08T00:05:20;148596.03;;;10.16
47484;BMP280;54076;50.322;18.650;2023-08-08T00:10:21;148357.45;;;10.07
47484;BMP280;54076;50.322;18.650;2023-08-08T00:15:22;148314.73;;;10.05
47484;BMP280;54076;50.322;18.650;2023-08-08T00:20:23;148584.30;;;10.15
47484;BMP280;54076;50.322;18.650;2023-08-08T00:25:24;148230.08;;;10.01
47484;BMP280;54076;50.322;18.650;2023-08-08T00:30:25;148184.92;;;10.00
47484;BMP280;54076;50.322;18.650;2023-08-08T00:35:26;148017.09;;;9.94
47484;BMP280;54076;50.322;18.650;2023-08-08T00:40:27;147592.59;;;9.79
47484;BMP280;54076;50.322;18.650;2023-08-08T00:45:28;147240.11;;;9.67
47484;BMP280;54076;50.322;18.650;2023-08-08T00:50:29;147168.19;;;9.63
47484;BMP280;54076;50.322;18.650;2023-08-08T00:55:31;146799.36;;;9.51
47484;BMP280;54076;50.322;18.650;2023-08-08T01:00:32;146899.89;;;9.54
47484;BMP280;54076;50.322;18.650;2023-08-08T01:05:39;146317.06;;;9.34
47484;BMP280;54076;50.322;18.650;2023-08-08T01:10:41;146062.63;;;9.25
47484;BMP280;54076;50.322;18.650;2023-08-08T01:15:44;146085.41;;;9.26
47484;BMP280;54076;50.322;18.650;2023-08-08T01:20:47;145878.17;;;9.19
47484;BMP280;54076;50.322;18.650;2023-08-08T01:25:48;145580.55;;;9.10
47484;BMP280;54076;50.322;18.650;2023-08-08T01:30:51;145969.28;;;9.21
47484;BMP280;54076;50.322;18.650;2023-08-08T01:36:04;145737.59;;;9.15
47484;BMP280;54076;50.322;18.650;2023-08-08T01:41:08;146132.50;;;9.27
47484;BMP280;54076;50.322;18.650;2023-08-08T01:46:09;146272.47;;;9.33
47484;BMP280;54076;50.322;18.650;2023-08-08T01:51:10;146278.63;;;9.34
47484;BMP280;54076;50.322;18.650;2023-08-08T01:56:11;145948.41;;;9.21
47484;BMP280;54076;50.322;18.650;2023-08-08T02:01:12;145718.63;;;9.14
47484;BMP280;54076;50.322;18.650;2023-08-08T02:06:13;145948.30;;;9.21
47484;BMP280;54076;50.322;18.650;2023-08-08T02:11:14;145805.94;;;9.17
47484;BMP280;54076;50.322;18.650;2023-08-08T02:16:15;145836.47;;;9.17
47484;BMP280;54076;50.322;18.650;2023-08-08T02:21:16;145413.17;;;9.03
47484;BMP280;54076;50.322;18.650;2023-08-08T02:26:17;145320.97;;;9.00
47484;BMP280;54076;50.322;18.650;2023-08-08T02:31:18;145130.59;;;8.93
47484;BMP280;54076;50.322;18.650;2023-08-08T02:36:21;145278.03;;;8.98
47484;BMP280;54076;50.322;18.650;2023-08-08T02:41:22;145329.09;;;9.00
47484;BMP280;54076;50.322;18.650;2023-08-08T02:46:23;145617.42;;;9.11
47484;BMP280;54076;50.322;18.650;2023-08-08T02:51:24;145832.80;;;9.17
47484;BMP280;54076;50.322;18.650;2023-08-08T02:56:25;145860.59;;;9.18
47484;BMP280;54076;50.322;18.650;2023-08-08T03:01:26;145278.95;;;8.99
47484;BMP280;54076;50.322;18.650;2023-08-08T03:06:27;145176.28;;;8.95
47484;BMP280;54076;50.322;18.650;2023-08-08T03:11:28;145290.38;;;8.98
47484;BMP280;54076;50.322;18.650;2023-08-08T03:16:29;145505.44;;;9.05
47484;BMP280;54076;50.322;18.650;2023-08-08T03:21:30;145091.31;;;8.91
47484;BMP280;54076;50.322;18.650;2023-08-08T03:26:31;145483.28;;;9.04
47484;BMP280;54076;50.322;18.650;2023-08-08T03:31:32;145248.13;;;8.96
47484;BMP280;54076;50.322;18.650;2023-08-08T03:36:33;145224.09;;;8.95
47484;BMP280;54076;50.322;18.650;2023-08-08T03:41:34;145321.97;;;8.97
47484;BMP280;54076;50.322;18.650;2023-08-08T03:46:35;145042.59;;;8.88
47484;BMP280;54076;50.322;18.650;2023-08-08T03:51:36;144702.97;;;8.77
47484;BMP280;54076;50.322;18.650;2023-08-08T03:56:37;144468.84;;;8.70
47484;BMP280;54076;50.322;18.650;2023-08-08T04:01:37;144940.08;;;8.85
47484;BMP280;54076;50.322;18.650;2023-08-08T04:06:38;145231.66;;;8.93
47484;BMP280;54076;50.322;18.650;2023-08-08T04:11:40;145709.28;;;9.08
47484;BMP280;54076;50.322;18.650;2023-08-08T04:16:41;145524.67;;;9.02
47484;BMP280;54076;50.322;18.650;2023-08-08T04:21:42;145300.08;;;8.95
47484;BMP280;54076;50.322;18.650;2023-08-08T04:26:43;145272.66;;;8.92
47484;BMP280;54076;50.322;18.650;2023-08-08T04:31:43;145156.00;;;8.88
47484;BMP280;54076;50.322;18.650;2023-08-08T04:36:44;145445.17;;;8.97
47484;BMP280;54076;50.322;18.650;2023-08-08T04:41:45;146358.78;;;9.26
47484;BMP280;54076;50.322;18.650;2023-08-08T04:46:46;146203.16;;;9.21
47484;BMP280;54076;50.322;18.650;2023-08-08T04:51:47;146480.45;;;9.29
47484;BMP280;54076;50.322;18.650;2023-08-08T04:56:48;146282.70;;;9.19
47484;BMP280;54076;50.322;18.650;2023-08-08T05:01:49;146081.84;;;9.10
47484;BMP280;54076;50.322;18.650;2023-08-08T05:06:50;146440.19;;;9.21
47484;BMP280;54076;50.322;18.650;2023-08-08T05:11:51;146753.88;;;9.30
47484;BMP280;54076;50.322;18.650;2023-08-08T05:16:52;146829.84;;;9.31
47484;BMP280;54076;50.322;18.650;2023-08-08T05:21:53;146639.16;;;9.30
47484;BMP280;54076;50.322;18.650;2023-08-08T05:26:53;147330.33;;;9.44
47484;BMP280;54076;50.322;18.650;2023-08-08T05:31:54;147731.09;;;9.64
47484;BMP280;54076;50.322;18.650;2023-08-08T05:36:55;147018.06;;;9.50
47484;BMP280;54076;50.322;18.650;2023-08-08T05:41:56;146849.09;;;9.43
47484;BMP280;54076;50.322;18.650;2023-08-08T05:46:57;147318.59;;;9.48
47484;BMP280;54076;50.322;18.650;2023-08-08T05:51:58;147283.17;;;9.45
47484;BMP280;54076;50.322;18.650;2023-08-08T05:56:59;148041.75;;;9.73
47484;BMP280;54076;50.322;18.650;2023-08-08T06:02:00;147983.72;;;9.70
47484;BMP280;54076;50.322;18.650;2023-08-08T06:07:01;148468.30;;;9.88
47484;BMP280;54076;50.322;18.650;2023-08-08T06:12:02;149100.53;;;10.12
47484;BMP280;54076;50.322;18.650;2023-08-08T06:17:04;149683.47;;;10.34
47484;BMP280;54076;50.322;18.650;2023-08-08T06:22:06;150009.34;;;10.48
47484;BMP280;54076;50.322;18.650;2023-08-08T06:27:07;150394.53;;;10.62
47484;BMP280;54076;50.322;18.650;2023-08-08T06:32:08;150843.00;;;10.78
47484;BMP280;54076;50.322;18.650;2023-08-08T06:37:08;150862.09;;;10.81
47484;BMP280;54076;50.322;18.650;2023-08-08T06:42:09;151412.16;;;11.09
47484;BMP280;54076;50.322;18.650;2023-08-08T06:47:11;150524.28;;;10.79
47484;BMP280;54076;50.322;18.650;2023-08-08T06:52:12;150030.75;;;10.49
47484;BMP280;54076;50.322;18.650;2023-08-08T06:57:13;150536.77;;;10.68
47484;BMP280;54076;50.322;18.650;2023-08-08T07:02:13;151554.42;;;11.08
47484;BMP280;54076;50.322;18.650;2023-08-08T07:07:14;152202.84;;;11.33
47484;BMP280;54076;50.322;18.650;2023-08-08T07:12:15;153113.47;;;11.67
47484;BMP280;54076;50.322;18.650;2023-08-08T07:17:16;153845.80;;;11.98
47484;BMP280;54076;50.322;18.650;2023-08-08T07:22:17;153239.55;;;11.73
47484;BMP280;54076;50.322;18.650;2023-08-08T07:27:18;153972.97;;;12.06
47484;BMP280;54076;50.322;18.650;2023-08-08T07:32:19;153555.73;;;11.87
47484;BMP280;54076;50.322;18.650;2023-08-08T07:37:20;153628.75;;;11.90
47484;BMP280;54076;50.322;18.650;2023-08-08T07:42:21;153585.30;;;11.90
47484;BMP280;54076;50.322;18.650;2023-08-08T07:47:22;153349.91;;;11.77
47484;BMP280;54076;50.322;18.650;2023-08-08T07:52:23;154233.22;;;12.22
47484;BMP280;54076;50.322;18.650;2023-08-08T07:57:26;154063.84;;;12.15
47484;BMP280;54076;50.322;18.650;2023-08-08T08:02:27;155134.28;;;12.64
47484;BMP280;54076;50.322;18.650;2023-08-08T08:07:28;154753.33;;;12.51
47484;BMP280;54076;50.322;18.650;2023-08-08T08:12:30;154137.02;;;12.21
47484;BMP280;54076;50.322;18.650;2023-08-08T08:17:31;153934.09;;;12.11
47484;BMP280;54076;50.322;18.650;2023-08-08T08:22:32;154209.22;;;12.23
47484;BMP280;54076;50.322;18.650;2023-08-08T08:27:33;154314.67;;;12.28
47484;BMP280;54076;50.322;18.650;2023-08-08T08:32:34;154454.09;;;12.34
47484;BMP280;54076;50.322;18.650;2023-08-08T08:37:35;154447.92;;;12.33
47484;BMP280;54076;50.322;18.650;2023-08-08T08:42:38;155241.47;;;12.76
47484;BMP280;54076;50.322;18.650;2023-08-08T08:47:41;154575.34;;;12.41
47484;BMP280;54076;50.322;18.650;2023-08-08T08:52:45;155333.83;;;12.78
47484;BMP280;54076;50.322;18.650;2023-08-08T08:57:45;155049.14;;;12.73
47484;BMP280;54076;50.322;18.650;2023-08-08T09:02:47;154746.91;;;12.51
47484;BMP280;54076;50.322;18.650;2023-08-08T09:07:48;154435.28;;;12.32
47484;BMP280;54076;50.322;18.650;2023-08-08T09:12:49;155755.00;;;12.96
47484;BMP280;54076;50.322;18.650;2023-08-08T09:17:50;155631.33;;;12.94
47484;BMP280;54076;50.322;18.650;2023-08-08T09:22:51;155690.78;;;12.97
47484;BMP280;54076;50.322;18.650;2023-08-08T09:27:53;156350.38;;;13.26
47484;BMP280;54076;50.322;18.650;2023-08-08T09:32:58;156499.02;;;13.30
47484;BMP280;54076;50.322;18.650;2023-08-08T09:37:59;157089.34;;;13.58
47484;BMP280;54076;50.322;18.650;2023-08-08T09:43:00;156365.52;;;13.27
47484;BMP280;54076;50.322;18.650;2023-08-08T09:48:01;156281.53;;;13.24
47484;BMP280;54076;50.322;18.650;2023-08-08T09:53:02;156833.45;;;13.45
47484;BMP280;54076;50.322;18.650;2023-08-08T09:58:04;156413.92;;;13.34
47484;BMP280;54076;50.322;18.650;2023-08-08T10:03:06;155838.75;;;13.12
47484;BMP280;54076;50.322;18.650;2023-08-08T10:08:07;155583.23;;;13.03
47484;BMP280;54076;50.322;18.650;2023-08-08T10:13:09;155205.33;;;12.76
47484;BMP280;54076;50.322;18.650;2023-08-08T10:18:12;155188.47;;;12.73
47484;BMP280;54076;50.322;18.650;2023-08-08T10:23:17;155551.92;;;12.92
47484;BMP280;54076;50.322;18.650;2023-08-08T10:28:20;155959.72;;;13.09
47484;BMP280;54076;50.322;18.650;2023-08-08T10:33:24;156795.38;;;13.47
47484;BMP280;54076;50.322;18.650;2023-08-08T10:38:39;158130.39;;;14.03
47484;BMP280;54076;50.322;18.650;2023-08-08T10:43:54;159697.53;;;14.82
47484;BMP280;54076;50.322;18.650;2023-08-08T10:49:01;162043.84;;;16.23
47484;BMP280;54076;50.322;18.650;2023-08-08T10:54:08;159098.17;;;14.56
47484;BMP280;54076;50.322;18.650;2023-08-08T10:59:17;160051.34;;;15.05
47484;BMP280;54076;50.322;18.650;2023-08-08T11:04:20;159372.55;;;14.76
47484;BMP280;54076;50.322;18.650;2023-08-08T11:09:23;161312.52;;;15.86
47484;BMP280;54076;50.322;18.650;2023-08-08T11:14:24;161723.42;;;15.98
47484;BMP280;54076;50.322;18.650;2023-08-08T11:19:25;162724.34;;;16.66
47484;BMP280;54076;50.322;18.650;2023-08-08T11:24:26;164701.17;;;17.82
47484;BMP280;54076;50.322;18.650;2023-08-08T11:29:26;162561.95;;;16.57
47484;BMP280;54076;50.322;18.650;2023-08-08T11:34:33;162314.23;;;16.42
47484;BMP280;54076;50.322;18.650;2023-08-08T11:39:34;161395.58;;;15.88
47484;BMP280;54076;50.322;18.650;2023-08-08T11:44:35;160238.91;;;15.23
47484;BMP280;54076;50.322;18.650;2023-08-08T11:49:42;159260.91;;;14.71
47484;BMP280;54076;50.322;18.650;2023-08-08T11:54:43;159586.13;;;14.87
47484;BMP280;54076;50.322;18.650;2023-08-08T11:59:44;160309.84;;;15.23
47484;BMP280;54076;50.322;18.650;2023-08-08T12:04:46;162809.70;;;16.66
47484;BMP280;54076;50.322;18.650;2023-08-08T12:09:47;161447.50;;;15.91
47484;BMP280;54076;50.322;18.650;2023-08-08T12:14:48;160995.91;;;15.65
47484;BMP280;54076;50.322;18.650;2023-08-08T12:19:49;160762.53;;;15.50
47484;BMP280;54076;50.322;18.650;2023-08-08T12:24:50;161032.30;;;15.67
47484;BMP280;54076;50.322;18.650;2023-08-08T12:29:51;161192.34;;;15.78
47484;BMP280;54076;50.322;18.650;2023-08-08T12:34:55;160952.42;;;15.65
47484;BMP280;54076;50.322;18.650;2023-08-08T12:39:56;160315.81;;;15.29
47484;BMP280;54076;50.322;18.650;2023-08-08T12:44:57;159823.38;;;15.02
47484;BMP280;54076;50.322;18.650;2023-08-08T12:49:58;160422.56;;;15.34
47484;BMP280;54076;50.322;18.650;2023-08-08T12:54:59;163012.86;;;16.79
47484;BMP280;54076;50.322;18.650;2023-08-08T13:00:00;162394.42;;;16.43
47484;BMP280;54076;50.322;18.650;2023-08-08T13:05:01;162841.63;;;16.75
47484;BMP280;54076;50.322;18.650;2023-08-08T13:10:05;161650.36;;;16.06
47484;BMP280;54076;50.322;18.650;2023-08-08T13:15:06;161201.58;;;15.79
47484;BMP280;54076;50.322;18.650;2023-08-08T13:20:09;159897.66;;;15.07
47484;BMP280;54076;50.322;18.650;2023-08-08T13:25:10;159967.77;;;15.13
47484;BMP280;54076;50.322;18.650;2023-08-08T13:30:11;159805.03;;;15.02
47484;BMP280;54076;50.322;18.650;2023-08-08T13:35:12;160382.95;;;15.32
47484;BMP280;54076;50.322;18.650;2023-08-08T13:40:13;161791.58;;;16.12
47484;BMP280;54076;50.322;18.650;2023-08-08T13:45:14;161990.55;;;16.25
47484;BMP280;54076;50.322;18.650;2023-08-08T13:50:16;162174.45;;;16.36
47484;BMP280;54076;50.322;18.650;2023-08-08T13:55:16;162102.09;;;16.28
47484;BMP280;54076;50.322;18.650;2023-08-08T14:00:17;163265.64;;;16.99
47484;BMP280;54076;50.322;18.650;2023-08-08T14:05:18;162700.38;;;16.72
47484;BMP280;54076;50.322;18.650;2023-08-08T14:10:19;162903.16;;;16.78
47484;BMP280;54076;50.322;18.650;2023-08-08T14:15:21;162213.95;;;16.38
47484;BMP280;54076;50.322;18.650;2023-08-08T14:20:22;162530.31;;;16.56
47484;BMP280;54076;50.322;18.650;2023-08-08T14:25:22;163091.95;;;16.89
47484;BMP280;54076;50.322;18.650;2023-08-08T14:30:23;162002.14;;;16.31
47484;BMP280;54076;50.322;18.650;2023-08-08T14:35:27;162100.64;;;16.29
47484;BMP280;54076;50.322;18.650;2023-08-08T14:40:28;162593.77;;;16.62
47484;BMP280;54076;50.322;18.650;2023-08-08T14:45:29;161964.66;;;16.27
47484;BMP280;54076;50.322;18.650;2023-08-08T14:50:31;160453.91;;;15.42
47484;BMP280;54076;50.322;18.650;2023-08-08T14:55:32;160987.97;;;15.64
47484;BMP280;54076;50.322;18.650;2023-08-08T15:00:33;162289.13;;;16.42
47484;BMP280;54076;50.322;18.650;2023-08-08T15:05:34;162494.45;;;16.55
47484;BMP280;54076;50.322;18.650;2023-08-08T15:10:35;161233.06;;;15.85
47484;BMP280;54076;50.322;18.650;2023-08-08T15:15:36;159952.28;;;15.15
47484;BMP280;54076;50.322;18.650;2023-08-08T15:20:37;159157.42;;;14.77
47484;BMP280;54076;50.322;18.650;2023-08-08T15:25:38;158918.30;;;14.67
47484;BMP280;54076;50.322;18.650;2023-08-08T15:30:39;158473.91;;;14.48
47484;BMP280;54076;50.322;18.650;2023-08-08T15:35:40;157919.69;;;14.22
47484;BMP280;54076;50.322;18.650;2023-08-08T15:40:41;155116.78;;;12.81
47484;BMP280;54076;50.322;18.650;2023-08-08T15:45:42;153572.42;;;11.91
47484;BMP280;54076;50.322;18.650;2023-08-08T15:50:43;153743.75;;;11.96
47484;BMP280;54076;50.322;18.650;2023-08-08T15:55:44;155230.97;;;12.69
47484;BMP280;54076;50.322;18.650;2023-08-08T16:00:45;156538.84;;;13.34
47484;BMP280;54076;50.322;18.650;2023-08-08T16:05:46;157701.77;;;13.86
47484;BMP280;54076;50.322;18.650;2023-08-08T16:10:47;159802.89;;;14.92
47484;BMP280;54076;50.322;18.650;2023-08-08T16:15:48;160498.78;;;15.30
47484;BMP280;54076;50.322;18.650;2023-08-08T16:20:49;160993.50;;;15.61
47484;BMP280;54076;50.322;18.650;2023-08-08T16:25:50;159716.84;;;14.91
47484;BMP280;54076;50.322;18.650;2023-08-08T16:30:51;160319.42;;;15.22
47484;BMP280;54076;50.322;18.650;2023-08-08T16:35:52;164374.53;;;17.62
47484;BMP280;54076;50.322;18.650;2023-08-08T16:40:53;160216.03;;;15.24
47484;BMP280;54076;50.322;18.650;2023-08-08T16:45:54;159320.22;;;14.71
47484;BMP280;54076;50.322;18.650;2023-08-08T16:50:55;160602.33;;;15.36
47484;BMP280;54076;50.322;18.650;2023-08-08T16:55:56;166479.83;;;18.97
47484;BMP280;54076;50.322;18.650;2023-08-08T17:00:57;167528.13;;;19.82
47484;BMP280;54076;50.322;18.650;2023-08-08T17:05:59;168790.25;;;20.89
47484;BMP280;54076;50.322;18.650;2023-08-08T17:11:00;168225.78;;;20.48
47484;BMP280;54076;50.322;18.650;2023-08-08T17:16:01;167262.75;;;19.56
47484;BMP280;54076;50.322;18.650;2023-08-08T17:21:02;167656.58;;;19.95
47484;BMP280;54076;50.322;18.650;2023-08-08T17:26:03;164078.03;;;17.53
47484;BMP280;54076;50.322;18.650;2023-08-08T17:31:05;161127.84;;;15.83
47484;BMP280;54076;50.322;18.650;2023-08-08T17:36:06;159470.09;;;14.97
47484;BMP280;54076;50.322;18.650;2023-08-08T17:41:06;158364.83;;;14.42
47484;BMP280;54076;50.322;18.650;2023-08-08T17:46:08;157390.81;;;13.95
47484;BMP280;54076;50.322;18.650;2023-08-08T17:51:08;156670.28;;;13.62
47484;BMP280;54076;50.322;18.650;2023-08-08T17:56:10;156348.53;;;13.48
47484;BMP280;54076;50.322;18.650;2023-08-08T18:01:11;155964.06;;;13.32
47484;BMP280;54076;50.322;18.650;2023-08-08T18:06:13;155258.63;;;12.98
47484;BMP280;54076;50.322;18.650;2023-08-08T18:11:15;154990.64;;;12.85
47484;BMP280;54076;50.322;18.650;2023-08-08T18:16:16;154514.02;;;12.61
47484;BMP280;54076;50.322;18.650;2023-08-08T18:21:17;154434.25;;;12.58
47484;BMP280;54076;50.322;18.650;2023-08-08T18:26:18;154252.84;;;12.49
47484;BMP280;54076;50.322;18.650;2023-08-08T18:31:19;153968.78;;;12.33
47484;BMP280;54076;50.322;18.650;2023-08-08T18:36:21;153657.48;;;12.19
47484;BMP280;54076;50.322;18.650;2023-08-08T18:41:22;153423.92;;;12.09
47484;BMP280;54076;50.322;18.650;2023-08-08T18:46:23;153453.53;;;12.10
47484;BMP280;54076;50.322;18.650;2023-08-08T18:51:24;153247.06;;;12.03
47484;BMP280;54076;50.322;18.650;2023-08-08T18:56:25;153519.67;;;12.13
47484;BMP280;54076;50.322;18.650;2023-08-08T19:01:26;153302.55;;;12.05
47484;BMP280;54076;50.322;18.650;2023-08-08T19:06:28;153345.05;;;12.06
47484;BMP280;54076;50.322;18.650;2023-08-08T19:11:28;153339.80;;;12.06
47484;BMP280;54076;50.322;18.650;2023-08-08T19:16:30;152815.73;;;11.86
47484;BMP280;54076;50.322;18.650;2023-08-08T19:21:31;152772.63;;;11.84
47484;BMP280;54076;50.322;18.650;2023-08-08T19:26:32;152289.47;;;11.65
47484;BMP280;54076;50.322;18.650;2023-08-08T19:31:33;152207.83;;;11.61
47484;BMP280;54076;50.322;18.650;2023-08-08T19:36:34;152332.08;;;11.66
47484;BMP280;54076;50.322;18.650;2023-08-08T19:41:35;152037.97;;;11.55
47484;BMP280;54076;50.322;18.650;2023-08-08T19:46:36;151887.80;;;11.48
47484;BMP280;54076;50.322;18.650;2023-08-08T19:51:38;152012.36;;;11.53
47484;BMP280;54076;50.322;18.650;2023-08-08T19:56:39;151789.73;;;11.44
47484;BMP280;54076;50.322;18.650;2023-08-08T20:01:40;151726.69;;;11.41
47484;BMP280;54076;50.322;18.650;2023-08-08T20:06:41;151816.83;;;11.45
47484;BMP280;54076;50.322;18.650;2023-08-08T20:11:42;151684.00;;;11.39
47484;BMP280;54076;50.322;18.650;2023-08-08T20:16:43;151685.22;;;11.40
47484;BMP280;54076;50.322;18.650;2023-08-08T20:21:44;151735.47;;;11.41
47484;BMP280;54076;50.322;18.650;2023-08-08T20:26:45;151770.09;;;11.43
47484;BMP280;54076;50.322;18.650;2023-08-08T20:31:47;151586.83;;;11.36
47484;BMP280;54076;50.322;18.650;2023-08-08T20:36:48;151365.83;;;11.28
47484;BMP280;54076;50.322;18.650;2023-08-08T20:41:49;151742.53;;;11.42
47484;BMP280;54076;50.322;18.650;2023-08-08T20:46:50;151509.88;;;11.33
47484;BMP280;54076;50.322;18.650;2023-08-08T20:51:51;151478.97;;;11.32
47484;BMP280;54076;50.322;18.650;2023-08-08T20:56:58;151211.28;;;11.21
47484;BMP280;54076;50.322;18.650;2023-08-08T21:01:59;151254.33;;;11.23
47484;BMP280;54076;50.322;18.650;2023-08-08T21:07:00;151344.72;;;11.26
47484;BMP280;54076;50.322;18.650;2023-08-08T21:12:01;151250.66;;;11.23
47484;BMP280;54076;50.322;18.650;2023-08-08T21:17:02;150911.03;;;11.09
47484;BMP280;54076;50.322;18.650;2023-08-08T21:22:03;150802.88;;;11.05
47484;BMP280;54076;50.322;18.650;2023-08-08T21:27:05;150825.86;;;11.06
47484;BMP280;54076;50.322;18.650;2023-08-08T21:32:05;150547.91;;;10.95
47484;BMP280;54076;50.322;18.650;2023-08-08T21:37:06;150812.38;;;11.05
47484;BMP280;54076;50.322;18.650;2023-08-08T21:42:07;150872.28;;;11.07
47484;BMP280;54076;50.322;18.650;2023-08-08T21:47:09;150962.08;;;11.11
47484;BMP280;54076;50.322;18.650;2023-08-08T21:52:10;150831.72;;;11.07
47484;BMP280;54076;50.322;18.650;2023-08-08T21:57:11;151032.80;;;11.14
47484;BMP280;54076;50.322;18.650;2023-08-08T22:02:12;151064.97;;;11.15
47484;BMP280;54076;50.322;18.650;2023-08-08T22:07:13;150970.94;;;11.11
47484;BMP280;54076;50.322;18.650;2023-08-08T22:12:14;151040.97;;;11.14
47484;BMP280;54076;50.322;18.650;2023-08-08T22:17:15;151226.75;;;11.22
47484;BMP280;54076;50.322;18.650;2023-08-08T22:22:16;151008.45;;;11.13
47484;BMP280;54076;50.322;18.650;2023-08-08T22:27:18;151397.16;;;11.28
47484;BMP280;54076;50.322;18.650;2023-08-08T22:32:19;151211.30;;;11.21
47484;BMP280;54076;50.322;18.650;2023-08-08T22:37:19;151045.84;;;11.14
47484;BMP280;54076;50.322;18.650;2023-08-08T22:42:20;150932.45;;;11.09
47484;BMP280;54076;50.322;18.650;2023-08-08T22:47:21;150792.16;;;11.04
47484;BMP280;54076;50.322;18.650;2023-08-08T22:52:22;150660.75;;;10.99
47484;BMP280;54076;50.322;18.650;2023-08-08T22:57:23;150561.92;;;10.96
47484;BMP280;54076;50.322;18.650;2023-08-08T23:02:24;150655.77;;;10.99
47484;BMP280;54076;50.322;18.650;2023-08-08T23:07:25;150689.38;;;11.00
47484;BMP280;54076;50.322;18.650;2023-08-08T23:12:26;150665.38;;;11.00
47484;BMP280;54076;50.322;18.650;2023-08-08T23:17:27;150817.23;;;11.06
47484;BMP280;54076;50.322;18.650;2023-08-08T23:22:28;150582.38;;;10.97
47484;BMP280;54076;50.322;18.650;2023-08-08T23:27:30;150695.34;;;11.01
47484;BMP280;54076;50.322;18.650;2023-08-08T23:32:31;150614.59;;;10.98
47484;BMP280;54076;50.322;18.650;2023-08-08T23:37:32;150557.77;;;10.96
47484;BMP280;54076;50.322;18.650;2023-08-08T23:42:33;150580.78;;;10.96
47484;BMP280;54076;50.322;18.650;2023-08-08T23:47:33;150900.91;;;11.09
47484;BMP280;54076;50.322;18.650;2023-08-08T23:52:34;150713.13;;;11.02
47484;BMP280;54076;50.322;18.650;2023-08-08T23:57:35;150461.02;;;10.91
